sensor_id;sensor_type;location;lat;lon;timestamp;P1;durP1;ratioP1;P2;durP2;ratioP2
7348;SDS011;13010;-33.424;-70.614;2023-02-12T00:19:56;77.27;;;57.37;;
7348;SDS011;13010;-33.424;-70.614;2023-02-12T00:22:46;65.37;;;57.00;;
7348;SDS011;13010;-33.424;-70.614;2023-02-12T00:25:34;71.10;;;58.20;;
7348;SDS011;13010;-33.424;-70.614;2023-02-12T00:28:28;64.03;;;54.67;;
7348;SDS011;13010;-33.424;-70.614;2023-02-12T00:31:18;71.10;;;57.53;;
7348;SDS011;13010;-33.424;-70.614;2023-02-12T00:34:08;73.80;;;61.90;;
7348;SDS011;13010;-33.424;-70.614;2023-02-12T00:36:59;72.10;;;64.27;;
7348;SDS011;13010;-33.424;-70.614;2023-02-12T00:39:48;97.67;;;76.27;;
7348;SDS011;13010;-33.424;-70.614;2023-02-12T00:42:36;108.13;;;86.00;;
7348;SDS011;13010;-33.424;-70.614;2023-02-12T00:45:25;98.87;;;83.87;;
7348;SDS011;13010;-33.424;-70.614;2023-02-12T00:48:14;134.20;;;104.20;;
7348;SDS011;13010;-33.424;-70.614;2023-02-12T00:51:03;121.30;;;94.50;;
7348;SDS011;13010;-33.424;-70.614;2023-02-12T00:53:54;119.10;;;103.30;;
7348;SDS011;13010;-33.424;-70.614;2023-02-12T00:56:43;133.13;;;106.37;;
7348;SDS011;13010;-33.424;-70.614;2023-02-12T00:59:32;124.27;;;98.90;;
7348;SDS011;13010;-33.424;-70.614;2023-02-12T01:02:23;123.00;;;102.00;;
7348;SDS011;13010;-33.424;-70.614;2023-02-12T01:05:12;113.37;;;89.73;;
7348;SDS011;13010;-33.424;-70.614;2023-02-12T01:08:01;103.20;;;81.90;;
7348;SDS011;13010;-33.424;-70.614;2023-02-12T01:10:55;103.07;;;81.57;;
7348;SDS011;13010;-33.424;-70.614;2023-02-12T01:13:45;110.03;;;85.67;;
7348;SDS011;13010;-33.424;-70.614;2023-02-12T01:16:35;109.00;;;85.07;;
7348;SDS011;13010;-33.424;-70.614;2023-02-12T01:19:24;112.60;;;90.80;;
7348;SDS011;13010;-33.424;-70.614;2023-02-12T01:22:13;108.83;;;91.40;;
7348;SDS011;13010;-33.424;-70.614;2023-02-12T01:25:02;114.30;;;93.97;;
7348;SDS011;13010;-33.424;-70.614;2023-02-12T01:27:54;124.23;;;100.50;;
7348;SDS011;13010;-33.424;-70.614;2023-02-12T01:30:43;130.70;;;103.57;;
7348;SDS011;13010;-33.424;-70.614;2023-02-12T01:33:32;142.17;;;108.87;;
7348;SDS011;13010;-33.424;-70.614;2023-02-12T01:36:20;132.60;;;109.07;;
7348;SDS011;13010;-33.424;-70.614;2023-02-12T01:39:10;137.27;;;110.33;;
7348;SDS011;13010;-33.424;-70.614;2023-02-12T01:41:59;148.87;;;116.20;;
7348;SDS011;13010;-33.424;-70.614;2023-02-12T01:48:24;145.87;;;114.57;;
7348;SDS011;13010;-33.424;-70.614;2023-02-12T01:51:17;179.90;;;133.10;;
7348;SDS011;13010;-33.424;-70.614;2023-02-12T01:54:09;187.23;;;145.73;;
7348;SDS011;13010;-33.424;-70.614;2023-02-12T01:57:01;195.83;;;154.87;;
7348;SDS011;13010;-33.424;-70.614;2023-02-12T01:59:51;233.23;;;184.97;;
7348;SDS011;13010;-33.424;-70.614;2023-02-12T02:02:45;241.80;;;193.10;;
7348;SDS011;13010;-33.424;-70.614;2023-02-12T02:05:37;262.97;;;200.07;;
7348;SDS011;13010;-33.424;-70.614;2023-02-12T02:08:31;260.07;;;211.20;;
7348;SDS011;13010;-33.424;-70.614;2023-02-12T02:11:21;262.00;;;206.27;;
7348;SDS011;13010;-33.424;-70.614;2023-02-12T02:14:26;248.50;;;201.50;;
7348;SDS011;13010;-33.424;-70.614;2023-02-12T02:17:31;263.67;;;195.60;;
7348;SDS011;13010;-33.424;-70.614;2023-02-12T02:20:40;247.53;;;183.70;;
7348;SDS011;13010;-33.424;-70.614;2023-02-12T02:23:57;232.00;;;175.07;;
7348;SDS011;13010;-33.424;-70.614;2023-02-12T02:27:14;216.60;;;171.17;;
7348;SDS011;13010;-33.424;-70.614;2023-02-12T02:30:16;221.53;;;158.77;;
7348;SDS011;13010;-33.424;-70.614;2023-02-12T02:33:18;189.40;;;143.63;;
7348;SDS011;13010;-33.424;-70.614;2023-02-12T02:36:14;175.37;;;137.30;;
7348;SDS011;13010;-33.424;-70.614;2023-02-12T02:39:12;157.87;;;129.37;;
7348;SDS011;13010;-33.424;-70.614;2023-02-12T02:42:08;153.90;;;122.23;;
7348;SDS011;13010;-33.424;-70.614;2023-02-12T02:45:04;164.90;;;127.73;;
7348;SDS011;13010;-33.424;-70.614;2023-02-12T02:48:02;151.07;;;116.30;;
7348;SDS011;13010;-33.424;-70.614;2023-02-12T02:50:56;132.53;;;109.57;;
7348;SDS011;13010;-33.424;-70.614;2023-02-12T02:53:51;119.07;;;101.47;;
7348;SDS011;13010;-33.424;-70.614;2023-02-12T02:56:44;120.83;;;90.13;;
7348;SDS011;13010;-33.424;-70.614;2023-02-12T02:59:35;121.90;;;81.50;;
7348;SDS011;13010;-33.424;-70.614;2023-02-12T03:02:30;102.33;;;79.47;;
7348;SDS011;13010;-33.424;-70.614;2023-02-12T03:05:25;83.07;;;71.10;;
7348;SDS011;13010;-33.424;-70.614;2023-02-12T03:08:21;85.63;;;65.60;;
7348;SDS011;13010;-33.424;-70.614;2023-02-12T03:11:15;78.83;;;60.20;;
7348;SDS011;13010;-33.424;-70.614;2023-02-12T03:14:08;68.47;;;57.60;;
7348;SDS011;13010;-33.424;-70.614;2023-02-12T03:17:02;70.17;;;56.60;;
7348;SDS011;13010;-33.424;-70.614;2023-02-12T03:19:55;77.47;;;55.20;;
7348;SDS011;13010;-33.424;-70.614;2023-02-12T03:22:51;77.93;;;50.87;;
7348;SDS011;13010;-33.424;-70.614;2023-02-12T03:25:47;61.87;;;43.90;;
7348;SDS011;13010;-33.424;-70.614;2023-02-12T03:28:40;64.67;;;45.70;;
7348;SDS011;13010;-33.424;-70.614;2023-02-12T03:31:30;50.57;;;42.70;;
7348;SDS011;13010;-33.424;-70.614;2023-02-12T03:34:24;57.13;;;44.20;;
7348;SDS011;13010;-33.424;-70.614;2023-02-12T03:37:20;69.03;;;46.53;;
7348;SDS011;13010;-33.424;-70.614;2023-02-12T03:40:18;53.77;;;44.23;;
7348;SDS011;13010;-33.424;-70.614;2023-02-12T03:43:12;61.03;;;42.67;;
7348;SDS011;13010;-33.424;-70.614;2023-02-12T03:46:09;76.70;;;58.63;;
7348;SDS011;13010;-33.424;-70.614;2023-02-12T03:49:03;72.80;;;51.80;;
7348;SDS011;13010;-33.424;-70.614;2023-02-12T03:51:56;64.83;;;50.57;;
7348;SDS011;13010;-33.424;-70.614;2023-02-12T03:54:45;58.03;;;44.90;;
7348;SDS011;13010;-33.424;-70.614;2023-02-12T03:57:39;60.47;;;43.60;;
7348;SDS011;13010;-33.424;-70.614;2023-02-12T04:00:30;53.33;;;42.63;;
7348;SDS011;13010;-33.424;-70.614;2023-02-12T04:03:19;52.03;;;42.80;;
7348;SDS011;13010;-33.424;-70.614;2023-02-12T04:06:17;67.13;;;43.60;;
7348;SDS011;13010;-33.424;-70.614;2023-02-12T04:09:08;61.37;;;45.20;;
7348;SDS011;13010;-33.424;-70.614;2023-02-12T04:12:00;69.30;;;43.87;;
7348;SDS011;13010;-33.424;-70.614;2023-02-12T04:15:10;57.30;;;43.00;;
7348;SDS011;13010;-33.424;-70.614;2023-02-12T04:18:11;51.90;;;42.50;;
7348;SDS011;13010;-33.424;-70.614;2023-02-12T04:21:05;63.23;;;43.87;;
7348;SDS011;13010;-33.424;-70.614;2023-02-12T04:24:02;57.97;;;42.40;;
7348;SDS011;13010;-33.424;-70.614;2023-02-12T04:27:03;67.87;;;43.43;;
7348;SDS011;13010;-33.424;-70.614;2023-02-12T04:29:57;48.43;;;40.50;;
7348;SDS011;13010;-33.424;-70.614;2023-02-12T04:32:54;55.53;;;42.50;;
7348;SDS011;13010;-33.424;-70.614;2023-02-12T04:35:47;54.30;;;42.63;;
7348;SDS011;13010;-33.424;-70.614;2023-02-12T04:38:39;55.53;;;42.73;;
7348;SDS011;13010;-33.424;-70.614;2023-02-12T04:41:33;66.33;;;44.33;;
7348;SDS011;13010;-33.424;-70.614;2023-02-12T04:44:23;54.83;;;40.87;;
7348;SDS011;13010;-33.424;-70.614;2023-02-12T04:47:12;67.60;;;44.67;;
7348;SDS011;13010;-33.424;-70.614;2023-02-12T04:50:04;61.23;;;42.57;;
7348;SDS011;13010;-33.424;-70.614;2023-02-12T04:52:53;49.10;;;40.37;;
7348;SDS011;13010;-33.424;-70.614;2023-02-12T04:55:43;49.00;;;39.80;;
7348;SDS011;13010;-33.424;-70.614;2023-02-12T04:58:34;63.93;;;42.63;;
7348;SDS011;13010;-33.424;-70.614;2023-02-12T05:01:24;57.63;;;40.80;;
7348;SDS011;13010;-33.424;-70.614;2023-02-12T05:04:13;59.30;;;41.37;;
7348;SDS011;13010;-33.424;-70.614;2023-02-12T05:07:05;51.43;;;42.07;;
7348;SDS011;13010;-33.424;-70.614;2023-02-12T05:09:54;50.57;;;39.53;;
7348;SDS011;13010;-33.424;-70.614;2023-02-12T05:12:43;47.97;;;39.50;;
7348;SDS011;13010;-33.424;-70.614;2023-02-12T05:15:32;72.20;;;40.20;;
7348;SDS011;13010;-33.424;-70.614;2023-02-12T05:18:21;48.73;;;37.13;;
7348;SDS011;13010;-33.424;-70.614;2023-02-12T05:21:10;56.70;;;37.50;;
7348;SDS011;13010;-33.424;-70.614;2023-02-12T05:24:03;49.67;;;37.13;;
7348;SDS011;13010;-33.424;-70.614;2023-02-12T05:26:52;60.07;;;38.50;;
7348;SDS011;13010;-33.424;-70.614;2023-02-12T05:29:41;67.40;;;49.23;;
7348;SDS011;13010;-33.424;-70.614;2023-02-12T05:32:30;79.50;;;61.67;;
7348;SDS011;13010;-33.424;-70.614;2023-02-12T05:35:20;68.03;;;49.30;;
7348;SDS011;13010;-33.424;-70.614;2023-02-12T05:38:08;57.43;;;42.67;;
7348;SDS011;13010;-33.424;-70.614;2023-02-12T05:41:02;54.53;;;41.70;;
7348;SDS011;13010;-33.424;-70.614;2023-02-12T05:43:52;76.90;;;56.30;;
7348;SDS011;13010;-33.424;-70.614;2023-02-12T05:46:41;51.00;;;38.00;;
7348;SDS011;13010;-33.424;-70.614;2023-02-12T05:49:30;68.70;;;46.60;;
7348;SDS011;13010;-33.424;-70.614;2023-02-12T05:52:20;60.07;;;41.50;;
7348;SDS011;13010;-33.424;-70.614;2023-02-12T05:55:09;76.47;;;54.77;;
7348;SDS011;13010;-33.424;-70.614;2023-02-12T05:57:59;53.73;;;39.60;;
7348;SDS011;13010;-33.424;-70.614;2023-02-12T06:00:48;51.87;;;40.17;;
7348;SDS011;13010;-33.424;-70.614;2023-02-12T06:03:37;61.13;;;45.87;;
7348;SDS011;13010;-33.424;-70.614;2023-02-12T06:06:32;56.77;;;39.60;;
7348;SDS011;13010;-33.424;-70.614;2023-02-12T06:09:30;55.50;;;37.90;;
7348;SDS011;13010;-33.424;-70.614;2023-02-12T06:12:19;50.77;;;35.90;;
7348;SDS011;13010;-33.424;-70.614;2023-02-12T06:15:10;52.13;;;39.30;;
7348;SDS011;13010;-33.424;-70.614;2023-02-12T06:18:01;49.30;;;36.00;;
7348;SDS011;13010;-33.424;-70.614;2023-02-12T06:20:51;58.10;;;38.63;;
7348;SDS011;13010;-33.424;-70.614;2023-02-12T06:23:46;61.00;;;39.70;;
7348;SDS011;13010;-33.424;-70.614;2023-02-12T06:26:36;58.40;;;42.57;;
7348;SDS011;13010;-33.424;-70.614;2023-02-12T06:29:25;55.73;;;40.07;;
7348;SDS011;13010;-33.424;-70.614;2023-02-12T06:32:15;50.27;;;37.07;;
7348;SDS011;13010;-33.424;-70.614;2023-02-12T06:35:04;52.67;;;36.77;;
7348;SDS011;13010;-33.424;-70.614;2023-02-12T06:37:53;47.47;;;37.77;;
7348;SDS011;13010;-33.424;-70.614;2023-02-12T06:40:41;66.93;;;41.57;;
7348;SDS011;13010;-33.424;-70.614;2023-02-12T06:43:30;47.13;;;39.10;;
7348;SDS011;13010;-33.424;-70.614;2023-02-12T06:46:20;44.17;;;36.63;;
7348;SDS011;13010;-33.424;-70.614;2023-02-12T06:49:11;50.13;;;40.27;;
7348;SDS011;13010;-33.424;-70.614;2023-02-12T06:52:02;47.10;;;39.30;;
7348;SDS011;13010;-33.424;-70.614;2023-02-12T06:54:50;53.23;;;41.53;;
7348;SDS011;13010;-33.424;-70.614;2023-02-12T06:57:39;52.87;;;37.90;;
7348;SDS011;13010;-33.424;-70.614;2023-02-12T07:00:28;60.60;;;41.80;;
7348;SDS011;13010;-33.424;-70.614;2023-02-12T07:03:18;54.00;;;40.23;;
7348;SDS011;13010;-33.424;-70.614;2023-02-12T07:06:09;46.23;;;38.33;;
7348;SDS011;13010;-33.424;-70.614;2023-02-12T07:08:58;58.37;;;39.87;;
7348;SDS011;13010;-33.424;-70.614;2023-02-12T07:11:47;56.00;;;42.87;;
7348;SDS011;13010;-33.424;-70.614;2023-02-12T07:14:37;53.23;;;42.50;;
7348;SDS011;13010;-33.424;-70.614;2023-02-12T07:17:28;77.20;;;55.40;;
7348;SDS011;13010;-33.424;-70.614;2023-02-12T07:20:17;66.37;;;45.63;;
7348;SDS011;13010;-33.424;-70.614;2023-02-12T07:23:08;51.03;;;39.40;;
7348;SDS011;13010;-33.424;-70.614;2023-02-12T07:25:58;48.27;;;36.40;;
7348;SDS011;13010;-33.424;-70.614;2023-02-12T07:28:49;50.20;;;36.60;;
7348;SDS011;13010;-33.424;-70.614;2023-02-12T07:31:39;50.20;;;39.60;;
7348;SDS011;13010;-33.424;-70.614;2023-02-12T07:34:28;47.10;;;37.50;;
7348;SDS011;13010;-33.424;-70.614;2023-02-12T07:37:20;53.37;;;39.47;;
7348;SDS011;13010;-33.424;-70.614;2023-02-12T07:40:10;51.40;;;34.63;;
7348;SDS011;13010;-33.424;-70.614;2023-02-12T07:42:59;49.57;;;38.17;;
7348;SDS011;13010;-33.424;-70.614;2023-02-12T07:45:48;52.77;;;37.80;;
7348;SDS011;13010;-33.424;-70.614;2023-02-12T07:48:37;43.30;;;35.70;;
7348;SDS011;13010;-33.424;-70.614;2023-02-12T07:51:26;45.97;;;34.60;;
7348;SDS011;13010;-33.424;-70.614;2023-02-12T07:54:16;48.73;;;37.80;;
7348;SDS011;13010;-33.424;-70.614;2023-02-12T07:57:06;51.17;;;37.20;;
7348;SDS011;13010;-33.424;-70.614;2023-02-12T07:59:55;48.00;;;32.40;;
7348;SDS011;13010;-33.424;-70.614;2023-02-12T08:02:44;49.20;;;37.10;;
7348;SDS011;13010;-33.424;-70.614;2023-02-12T08:05:39;45.40;;;35.23;;
7348;SDS011;13010;-33.424;-70.614;2023-02-12T08:08:28;42.30;;;36.83;;
7348;SDS011;13010;-33.424;-70.614;2023-02-12T08:11:16;48.20;;;36.30;;
7348;SDS011;13010;-33.424;-70.614;2023-02-12T08:14:08;57.33;;;37.87;;
7348;SDS011;13010;-33.424;-70.614;2023-02-12T08:16:59;51.00;;;39.77;;
7348;SDS011;13010;-33.424;-70.614;2023-02-12T08:19:47;53.20;;;40.47;;
7348;SDS011;13010;-33.424;-70.614;2023-02-12T08:22:36;51.60;;;40.13;;
7348;SDS011;13010;-33.424;-70.614;2023-02-12T08:25:25;54.53;;;39.30;;
7348;SDS011;13010;-33.424;-70.614;2023-02-12T08:28:14;57.33;;;38.70;;
7348;SDS011;13010;-33.424;-70.614;2023-02-12T08:31:06;55.10;;;41.20;;
7348;SDS011;13010;-33.424;-70.614;2023-02-12T08:33:56;61.80;;;44.33;;
7348;SDS011;13010;-33.424;-70.614;2023-02-12T08:36:46;60.73;;;45.53;;
7348;SDS011;13010;-33.424;-70.614;2023-02-12T08:39:35;60.23;;;45.30;;
7348;SDS011;13010;-33.424;-70.614;2023-02-12T08:42:23;56.90;;;48.00;;
7348;SDS011;13010;-33.424;-70.614;2023-02-12T08:45:12;54.60;;;46.83;;
7348;SDS011;13010;-33.424;-70.614;2023-02-12T08:48:02;68.30;;;48.67;;
7348;SDS011;13010;-33.424;-70.614;2023-02-12T08:50:51;66.50;;;52.67;;
7348;SDS011;13010;-33.424;-70.614;2023-02-12T08:53:40;59.90;;;51.87;;
7348;SDS011;13010;-33.424;-70.614;2023-02-12T08:56:30;62.10;;;47.67;;
7348;SDS011;13010;-33.424;-70.614;2023-02-12T08:59:19;69.37;;;52.90;;
7348;SDS011;13010;-33.424;-70.614;2023-02-12T09:02:08;77.57;;;51.77;;
7348;SDS011;13010;-33.424;-70.614;2023-02-12T09:04:59;62.10;;;51.07;;
7348;SDS011;13010;-33.424;-70.614;2023-02-12T09:07:50;61.70;;;54.57;;
7348;SDS011;13010;-33.424;-70.614;2023-02-12T09:10:42;68.87;;;53.70;;
7348;SDS011;13010;-33.424;-70.614;2023-02-12T09:13:31;57.60;;;45.50;;
7348;SDS011;13010;-33.424;-70.614;2023-02-12T09:16:20;69.33;;;56.87;;
7348;SDS011;13010;-33.424;-70.614;2023-02-12T09:19:10;73.67;;;57.87;;
7348;SDS011;13010;-33.424;-70.614;2023-02-12T09:22:02;74.47;;;55.50;;
7348;SDS011;13010;-33.424;-70.614;2023-02-12T09:24:52;77.00;;;60.63;;
7348;SDS011;13010;-33.424;-70.614;2023-02-12T09:27:41;88.80;;;62.03;;
7348;SDS011;13010;-33.424;-70.614;2023-02-12T09:30:30;82.80;;;66.10;;
7348;SDS011;13010;-33.424;-70.614;2023-02-12T09:33:19;75.97;;;62.07;;
7348;SDS011;13010;-33.424;-70.614;2023-02-12T09:36:08;91.70;;;67.90;;
7348;SDS011;13010;-33.424;-70.614;2023-02-12T09:39:00;81.63;;;60.60;;
7348;SDS011;13010;-33.424;-70.614;2023-02-12T09:41:55;90.03;;;70.27;;
7348;SDS011;13010;-33.424;-70.614;2023-02-12T09:45:02;91.40;;;73.43;;
7348;SDS011;13010;-33.424;-70.614;2023-02-12T09:47:57;90.80;;;70.70;;
7348;SDS011;13010;-33.424;-70.614;2023-02-12T09:50:55;82.17;;;69.07;;
7348;SDS011;13010;-33.424;-70.614;2023-02-12T09:53:46;77.33;;;61.90;;
7348;SDS011;13010;-33.424;-70.614;2023-02-12T09:56:50;82.07;;;63.60;;
7348;SDS011;13010;-33.424;-70.614;2023-02-12T09:59:41;70.87;;;57.43;;
7348;SDS011;13010;-33.424;-70.614;2023-02-12T10:02:34;70.87;;;54.50;;
7348;SDS011;13010;-33.424;-70.614;2023-02-12T10:05:24;67.80;;;52.97;;
7348;SDS011;13010;-33.424;-70.614;2023-02-12T10:08:25;72.50;;;58.60;;
7348;SDS011;13010;-33.424;-70.614;2023-02-12T10:14:50;71.37;;;56.23;;
7348;SDS011;13010;-33.424;-70.614;2023-02-12T10:17:52;67.27;;;54.67;;
7348;SDS011;13010;-33.424;-70.614;2023-02-12T10:20:51;70.53;;;51.87;;
7348;SDS011;13010;-33.424;-70.614;2023-02-12T10:23:52;70.53;;;52.00;;
7348;SDS011;13010;-33.424;-70.614;2023-02-12T10:27:02;69.10;;;54.60;;
7348;SDS011;13010;-33.424;-70.614;2023-02-12T10:29:57;68.47;;;56.40;;
7348;SDS011;13010;-33.424;-70.614;2023-02-12T10:32:46;67.77;;;51.97;;
7348;SDS011;13010;-33.424;-70.614;2023-02-12T10:35:42;68.53;;;49.00;;
7348;SDS011;13010;-33.424;-70.614;2023-02-12T10:38:35;63.87;;;51.30;;
7348;SDS011;13010;-33.424;-70.614;2023-02-12T10:41:29;66.83;;;50.87;;
7348;SDS011;13010;-33.424;-70.614;2023-02-12T10:44:20;76.80;;;52.50;;
7348;SDS011;13010;-33.424;-70.614;2023-02-12T19:59:00;3.87;;;0.77;;
7348;SDS011;13010;-33.424;-70.614;2023-02-12T20:01:51;2.77;;;0.77;;
7348;SDS011;13010;-33.424;-70.614;2023-02-12T20:04:41;4.27;;;0.83;;
7348;SDS011;13010;-33.424;-70.614;2023-02-12T20:07:31;2.10;;;0.70;;
7348;SDS011;13010;-33.424;-70.614;2023-02-12T20:10:21;3.43;;;0.90;;
7348;SDS011;13010;-33.424;-70.614;2023-02-12T20:13:10;2.10;;;0.53;;
7348;SDS011;13010;-33.424;-70.614;2023-02-12T20:16:06;3.07;;;0.83;;
7348;SDS011;13010;-33.424;-70.614;2023-02-12T20:18:59;3.40;;;1.37;;
7348;SDS011;13010;-33.424;-70.614;2023-02-12T20:21:50;4.70;;;1.57;;
7348;SDS011;13010;-33.424;-70.614;2023-02-12T20:24:39;4.00;;;1.63;;
7348;SDS011;13010;-33.424;-70.614;2023-02-12T20:27:28;3.80;;;1.90;;
7348;SDS011;13010;-33.424;-70.614;2023-02-12T20:30:17;9.03;;;1.70;;
7348;SDS011;13010;-33.424;-70.614;2023-02-12T20:33:09;3.83;;;2.07;;
7348;SDS011;13010;-33.424;-70.614;2023-02-12T20:35:59;5.60;;;2.10;;
7348;SDS011;13010;-33.424;-70.614;2023-02-12T20:38:49;5.57;;;2.10;;
7348;SDS011;13010;-33.424;-70.614;2023-02-12T20:41:40;5.77;;;2.83;;
7348;SDS011;13010;-33.424;-70.614;2023-02-12T20:44:29;4.00;;;2.23;;
7348;SDS011;13010;-33.424;-70.614;2023-02-12T20:47:19;4.40;;;2.90;;
7348;SDS011;13010;-33.424;-70.614;2023-02-12T20:50:14;8.30;;;2.60;;
7348;SDS011;13010;-33.424;-70.614;2023-02-12T20:53:04;16.23;;;3.40;;
7348;SDS011;13010;-33.424;-70.614;2023-02-12T20:55:53;5.20;;;2.87;;
7348;SDS011;13010;-33.424;-70.614;2023-02-12T20:58:47;5.83;;;3.00;;
7348;SDS011;13010;-33.424;-70.614;2023-02-12T21:01:37;12.90;;;3.67;;
7348;SDS011;13010;-33.424;-70.614;2023-02-12T21:04:27;13.33;;;4.50;;
7348;SDS011;13010;-33.424;-70.614;2023-02-12T21:07:18;4.90;;;3.60;;
7348;SDS011;13010;-33.424;-70.614;2023-02-12T21:10:07;8.97;;;3.47;;
7348;SDS011;13010;-33.424;-70.614;2023-02-12T21:12:56;6.97;;;3.90;;
7348;SDS011;13010;-33.424;-70.614;2023-02-12T21:15:45;4.23;;;2.60;;
7348;SDS011;13010;-33.424;-70.614;2023-02-12T21:18:34;5.13;;;3.30;;
7348;SDS011;13010;-33.424;-70.614;2023-02-12T21:21:24;7.83;;;3.67;;
7348;SDS011;13010;-33.424;-70.614;2023-02-12T21:24:18;5.60;;;3.57;;
7348;SDS011;13010;-33.424;-70.614;2023-02-12T21:27:08;7.20;;;3.80;;
7348;SDS011;13010;-33.424;-70.614;2023-02-12T21:29:58;7.87;;;4.20;;
7348;SDS011;13010;-33.424;-70.614;2023-02-12T21:32:47;5.40;;;4.03;;
7348;SDS011;13010;-33.424;-70.614;2023-02-12T21:35:37;6.93;;;3.90;;
7348;SDS011;13010;-33.424;-70.614;2023-02-12T21:38:26;4.90;;;3.40;;
7348;SDS011;13010;-33.424;-70.614;2023-02-12T21:41:20;5.47;;;3.23;;
7348;SDS011;13010;-33.424;-70.614;2023-02-12T21:44:11;6.00;;;4.00;;
7348;SDS011;13010;-33.424;-70.614;2023-02-12T21:47:00;6.17;;;3.67;;
7348;SDS011;13010;-33.424;-70.614;2023-02-12T21:49:49;6.70;;;3.53;;
7348;SDS011;13010;-33.424;-70.614;2023-02-12T21:52:38;4.63;;;3.30;;
7348;SDS011;13010;-33.424;-70.614;2023-02-12T21:55:28;10.17;;;4.53;;
7348;SDS011;13010;-33.424;-70.614;2023-02-12T21:58:19;7.93;;;5.13;;
7348;SDS011;13010;-33.424;-70.614;2023-02-12T22:01:08;4.63;;;3.30;;
7348;SDS011;13010;-33.424;-70.614;2023-02-12T22:03:59;8.50;;;4.17;;
7348;SDS011;13010;-33.424;-70.614;2023-02-12T22:06:48;6.10;;;4.13;;
7348;SDS011;13010;-33.424;-70.614;2023-02-12T22:09:38;9.67;;;4.80;;
